»·PEaware :: N6BF KCOS-KABQ

N6BF :: KCOS-KABQ

FLIGHT INFORMATION

Flight Status: Arrived
Operator: Privately registered:
United States
More flights under this callsign
Pilot: Ben F. (13029)
Aircraft: SOCATA TBM-900
(TBM9)
More flights by this aircraft type
Origin: KCOS City Of Colorado Springs Mun
United States
Destination: KABQ Albuquerque Intl Sunport
United States
More flights between these airports :: More routes between these airports
Route: +PUB V611 CIM V263 FTI V60 ABQ
File this flight plan on PilotEdge
Remarks: RMK / SIMBRIEF
Altitude:
(Current/Filed)
26,000ft
Speed:
(Current/Filed)
286kts
Departed: 27-Nov-19 04:04 PM
Arrived: 27-Nov-19 05:23 PM
Distance/Time
Traveled:
244nm/1:19
Distance/Time
To Go:
Arrived

Flight Plot

Page will automatically refresh every two minutes.

Flight plan parsing failed; only flown route is shown


Map Options




Map Legend


Flown Route
Filed Route
Departure Airport
Arrival Airport
Navaid (VOR, NDB)
Fix

Horizontal Profiles

Position Reports

Time Latitude Longitude Heading Altitude Ground
Speed
27-Nov-19 15:48 38.805073 -104.721481 90 6098ft 0kts
27-Nov-19 15:49 38.805073 -104.721481 90 6098ft 0kts
27-Nov-19 15:50 38.805073 -104.721481 90 6098ft 0kts
27-Nov-19 15:51 38.805073 -104.721481 90 6098ft 0kts
27-Nov-19 15:52 38.805073 -104.721481 90 6098ft 0kts
27-Nov-19 15:53 38.805073 -104.721481 90 6098ft 0kts
27-Nov-19 15:54 38.805073 -104.721481 90 6098ft 0kts
27-Nov-19 15:55 38.805073 -104.721481 90 6098ft 0kts
27-Nov-19 15:56 38.805073 -104.721481 90 6098ft 0kts
27-Nov-19 15:57 38.805073 -104.721481 90 6098ft 0kts
27-Nov-19 15:58 38.805073 -104.721325 90 6098ft 3kts
27-Nov-19 15:59 38.806216 -104.718824 91 6098ft 12kts
27-Nov-19 16:00 38.811103 -104.717333 359 6098ft 23kts
27-Nov-19 16:01 38.819722 -104.717327 359 6098ft 30kts
27-Nov-19 16:02 38.821698 -104.715894 178 6098ft 15kts
27-Nov-19 16:03 38.817266 -104.715903 180 6099ft 95kts
27-Nov-19 16:04 38.780001 -104.716171 177 7555ft 156kts
27-Nov-19 16:05 38.735721 -104.715638 178 9640ft 155kts
27-Nov-19 16:06 38.695572 -104.699087 156 11764ft 149kts
27-Nov-19 16:07 38.659626 -104.674658 159 13744ft 146kts
27-Nov-19 16:08 38.623746 -104.650430 161 15508ft 146kts
27-Nov-19 16:09 38.587757 -104.626174 164 17100ft 147kts
27-Nov-19 16:10 38.551397 -104.601704 166 18547ft 149kts
27-Nov-19 16:11 38.514656 -104.577035 167 19949ft 156kts
27-Nov-19 16:12 38.476766 -104.551478 171 22510ft 153kts
27-Nov-19 16:13 38.439040 -104.526201 175 24772ft 156kts
27-Nov-19 16:14 38.398580 -104.499523 172 26155ft 198kts
27-Nov-19 16:16 38.339627 -104.459978 167 26144ft 265kts
27-Nov-19 16:17 38.271644 -104.437465 196 26129ft 244kts
27-Nov-19 16:18 38.204494 -104.452149 199 26124ft 246kts
27-Nov-19 16:19 38.136907 -104.468973 199 26115ft 247kts
27-Nov-19 16:20 38.069471 -104.485814 200 26119ft 247kts
27-Nov-19 16:21 38.002022 -104.502665 199 26116ft 247kts
27-Nov-19 16:22 37.934495 -104.519541 199 26116ft 246kts
27-Nov-19 16:23 37.867008 -104.536279 199 26124ft 247kts
27-Nov-19 16:24 37.799387 -104.553078 199 26117ft 249kts
27-Nov-19 16:25 37.731168 -104.570028 199 26107ft 249kts
27-Nov-19 16:26 37.663403 -104.586777 199 26093ft 248kts
27-Nov-19 16:27 37.595258 -104.603622 199 26073ft 248kts
27-Nov-19 16:28 37.527250 -104.620381 200 26068ft 249kts
27-Nov-19 16:29 37.459205 -104.637128 199 26067ft 248kts
27-Nov-19 16:30 37.391481 -104.653762 199 26065ft 248kts
27-Nov-19 16:31 37.323793 -104.670349 199 26070ft 247kts
27-Nov-19 16:31 37.267234 -104.684216 199 26065ft 247kts
27-Nov-19 16:33 37.188505 -104.703424 199 26070ft 246kts
27-Nov-19 16:34 37.120912 -104.719905 199 26077ft 246kts
27-Nov-19 16:34 37.064961 -104.733509 199 26091ft 246kts
27-Nov-19 16:36 36.986466 -104.752587 199 26108ft 246kts
27-Nov-19 16:36 36.930320 -104.766222 199 26116ft 247kts
27-Nov-19 16:37 36.863939 -104.782304 199 26127ft 248kts
27-Nov-19 16:39 36.784263 -104.801566 199 26125ft 249kts
27-Nov-19 16:39 36.727244 -104.815318 199 26125ft 250kts
27-Nov-19 16:40 36.659035 -104.831759 199 26121ft 249kts
27-Nov-19 16:41 36.590791 -104.848143 199 26116ft 249kts
27-Nov-19 16:42 36.522897 -104.864477 197 26096ft 248kts
27-Nov-19 16:43 36.455908 -104.883363 200 26084ft 246kts
27-Nov-19 16:44 36.389717 -104.904455 200 26080ft 244kts
27-Nov-19 16:45 36.324269 -104.925289 200 26081ft 242kts
27-Nov-19 16:46 36.259348 -104.945933 200 26079ft 240kts
27-Nov-19 16:47 36.194843 -104.966407 199 26076ft 238kts
27-Nov-19 16:48 36.130687 -104.986746 199 26082ft 235kts
27-Nov-19 16:49 36.067520 -105.006719 199 26101ft 233kts
27-Nov-19 16:50 36.004690 -105.026559 199 26121ft 230kts
27-Nov-19 16:51 35.942203 -105.046282 199 26124ft 228kts
27-Nov-19 16:52 35.880454 -105.065686 198 26141ft 227kts
27-Nov-19 16:53 35.818488 -105.085176 199 26133ft 228kts
27-Nov-19 16:54 35.756957 -105.104481 198 26135ft 226kts
27-Nov-19 16:55 35.695934 -105.123591 198 26148ft 224kts
27-Nov-19 16:56 35.640861 -105.159939 220 25319ft 238kts
27-Nov-19 16:57 35.595478 -105.221448 221 24333ft 245kts
27-Nov-19 16:58 35.549665 -105.284585 221 23332ft 248kts
27-Nov-19 16:59 35.503232 -105.348471 221 22317ft 251kts
27-Nov-19 17:00 35.456278 -105.412991 221 21287ft 251kts
27-Nov-19 17:01 35.409265 -105.477450 221 20257ft 253kts
27-Nov-19 17:02 35.361739 -105.542494 221 19218ft 255kts
27-Nov-19 17:03 35.313862 -105.607914 221 18176ft 256kts
27-Nov-19 17:04 35.266656 -105.672261 220 17165ft 260kts
27-Nov-19 17:05 35.217980 -105.738501 221 16128ft 260kts
27-Nov-19 17:06 35.169035 -105.804990 221 15093ft 263kts
27-Nov-19 17:07 35.119625 -105.871985 221 14059ft 263kts
27-Nov-19 17:08 35.071610 -105.939244 237 13012ft 271kts
27-Nov-19 17:09 35.049778 -106.025390 245 13008ft 258kts
27-Nov-19 17:10 35.028591 -106.109200 245 12994ft 255kts
27-Nov-19 17:11 35.007609 -106.191997 245 12990ft 248kts
27-Nov-19 17:12 34.986587 -106.274702 247 12996ft 259kts
27-Nov-19 17:13 34.978176 -106.369222 258 11826ft 291kts
27-Nov-19 17:14 34.968596 -106.468992 258 10288ft 293kts
27-Nov-19 17:15 34.958658 -106.565652 258 9448ft 288kts
27-Nov-19 17:16 34.947794 -106.660285 258 8987ft 258kts
27-Nov-19 17:17 34.980503 -106.720122 346 8991ft 233kts
27-Nov-19 17:18 35.031245 -106.723278 51 7876ft 154kts
27-Nov-19 17:19 35.043245 -106.680055 81 6531ft 97kts
27-Nov-19 17:20 35.044461 -106.648532 86 5792ft 102kts
27-Nov-19 17:21 35.044313 -106.614992 87 5314ft 75kts
27-Nov-19 17:22 35.042721 -106.610692 184 5312ft 7kts
27-Nov-19 17:23 35.040550 -106.613822 181 5312ft 17kts
27-Nov-19 17:24 35.035343 -106.616918 222 5312ft 26kts
27-Nov-19 17:25 35.034533 -106.619809 133 5312ft 0kts
27-Nov-19 17:26 35.034533 -106.619809 133 5312ft 0kts
27-Nov-19 17:27 35.034533 -106.619809 133 5312ft 0kts
27-Nov-19 17:28 35.034533 -106.619809 133 5312ft 0kts
27-Nov-19 17:29 35.034533 -106.619809 133 5312ft 0kts
27-Nov-19 17:30 35.034533 -106.619809 133 5312ft 0kts
27-Nov-19 17:31 35.034533 -106.619809 133 5312ft 0kts
27-Nov-19 17:32 35.034533 -106.619809 133 5312ft 0kts
27-Nov-19 17:33 35.034533 -106.619809 133 5312ft 0kts
27-Nov-19 17:34 35.034533 -106.619809 133 5312ft 0kts
27-Nov-19 17:35 35.034533 -106.619809 133 5312ft 0kts
27-Nov-19 17:36 35.034533 -106.619809 133 5312ft 0kts
27-Nov-19 17:37 35.034533 -106.619809 133 5312ft 0kts

Navigation Log

Ident Type
Flight plan parsing failed, navigation log unavailable